sensor_id;sensor_type;location;lat;lon;timestamp;P1;durP1;ratioP1;P2;durP2;ratioP2
30818;SDS011;17546;42.674;23.284;2022-08-20T00:01:39;12.25;;;5.70;;
30818;SDS011;17546;42.674;23.284;2022-08-20T00:04:05;9.40;;;5.90;;
30818;SDS011;17546;42.674;23.284;2022-08-20T00:06:31;9.75;;;5.82;;
30818;SDS011;17546;42.674;23.284;2022-08-20T00:08:58;13.15;;;5.65;;
30818;SDS011;17546;42.674;23.284;2022-08-20T00:11:24;16.48;;;5.32;;
30818;SDS011;17546;42.674;23.284;2022-08-20T00:13:53;15.48;;;6.20;;
30818;SDS011;17546;42.674;23.284;2022-08-20T00:16:21;10.93;;;6.07;;
30818;SDS011;17546;42.674;23.284;2022-08-20T00:18:53;12.52;;;6.53;;
30818;SDS011;17546;42.674;23.284;2022-08-20T00:21:19;11.25;;;6.47;;
30818;SDS011;17546;42.674;23.284;2022-08-20T00:23:46;18.52;;;6.40;;
30818;SDS011;17546;42.674;23.284;2022-08-20T00:26:15;13.30;;;6.53;;
30818;SDS011;17546;42.674;23.284;2022-08-20T00:28:41;9.82;;;6.32;;
30818;SDS011;17546;42.674;23.284;2022-08-20T00:31:08;13.38;;;6.43;;
30818;SDS011;17546;42.674;23.284;2022-08-20T00:33:36;14.85;;;6.72;;
30818;SDS011;17546;42.674;23.284;2022-08-20T00:36:02;12.90;;;6.32;;
30818;SDS011;17546;42.674;23.284;2022-08-20T00:38:37;13.73;;;6.75;;
30818;SDS011;17546;42.674;23.284;2022-08-20T00:41:05;12.77;;;6.22;;
30818;SDS011;17546;42.674;23.284;2022-08-20T00:43:36;14.10;;;6.35;;
30818;SDS011;17546;42.674;23.284;2022-08-20T00:46:22;9.07;;;6.30;;
30818;SDS011;17546;42.674;23.284;2022-08-20T00:48:50;12.85;;;6.55;;
30818;SDS011;17546;42.674;23.284;2022-08-20T00:56:58;10.52;;;6.22;;
30818;SDS011;17546;42.674;23.284;2022-08-20T00:59:47;10.75;;;6.20;;
30818;SDS011;17546;42.674;23.284;2022-08-20T01:02:16;14.60;;;6.82;;
30818;SDS011;17546;42.674;23.284;2022-08-20T01:04:43;12.98;;;6.40;;
30818;SDS011;17546;42.674;23.284;2022-08-20T01:07:18;14.15;;;6.28;;
30818;SDS011;17546;42.674;23.284;2022-08-20T01:09:45;9.93;;;6.13;;
30818;SDS011;17546;42.674;23.284;2022-08-20T01:12:12;13.93;;;6.53;;
30818;SDS011;17546;42.674;23.284;2022-08-20T01:14:39;14.05;;;6.72;;
30818;SDS011;17546;42.674;23.284;2022-08-20T01:17:09;11.45;;;6.25;;
30818;SDS011;17546;42.674;23.284;2022-08-20T01:19:41;13.68;;;6.60;;
30818;SDS011;17546;42.674;23.284;2022-08-20T01:22:17;13.48;;;6.70;;
30818;SDS011;17546;42.674;23.284;2022-08-20T01:25:11;17.25;;;6.93;;
30818;SDS011;17546;42.674;23.284;2022-08-20T01:27:44;10.50;;;6.53;;
30818;SDS011;17546;42.674;23.284;2022-08-20T01:30:12;12.23;;;6.32;;
30818;SDS011;17546;42.674;23.284;2022-08-20T01:32:37;14.68;;;6.43;;
30818;SDS011;17546;42.674;23.284;2022-08-20T01:35:03;9.20;;;6.07;;
30818;SDS011;17546;42.674;23.284;2022-08-20T01:37:29;15.98;;;6.13;;
30818;SDS011;17546;42.674;23.284;2022-08-20T01:39:55;17.13;;;6.32;;
30818;SDS011;17546;42.674;23.284;2022-08-20T01:42:28;13.70;;;6.03;;
30818;SDS011;17546;42.674;23.284;2022-08-20T01:45:00;14.13;;;6.55;;
30818;SDS011;17546;42.674;23.284;2022-08-20T01:47:27;12.18;;;5.63;;
30818;SDS011;17546;42.674;23.284;2022-08-20T01:49:58;13.00;;;6.20;;
30818;SDS011;17546;42.674;23.284;2022-08-20T01:54:52;9.18;;;6.53;;
30818;SDS011;17546;42.674;23.284;2022-08-20T01:57:19;11.85;;;6.38;;
30818;SDS011;17546;42.674;23.284;2022-08-20T01:59:53;12.18;;;6.90;;
30818;SDS011;17546;42.674;23.284;2022-08-20T02:02:19;15.52;;;6.40;;
30818;SDS011;17546;42.674;23.284;2022-08-20T02:04:45;18.55;;;6.78;;
30818;SDS011;17546;42.674;23.284;2022-08-20T02:07:13;12.75;;;6.50;;
30818;SDS011;17546;42.674;23.284;2022-08-20T02:09:41;18.85;;;6.63;;
30818;SDS011;17546;42.674;23.284;2022-08-20T02:12:08;10.25;;;5.90;;
30818;SDS011;17546;42.674;23.284;2022-08-20T02:14:34;14.52;;;6.05;;
30818;SDS011;17546;42.674;23.284;2022-08-20T02:17:04;13.57;;;6.50;;
30818;SDS011;17546;42.674;23.284;2022-08-20T02:19:36;13.15;;;6.93;;
30818;SDS011;17546;42.674;23.284;2022-08-20T02:22:22;10.75;;;7.00;;
30818;SDS011;17546;42.674;23.284;2022-08-20T02:24:48;15.18;;;6.82;;
30818;SDS011;17546;42.674;23.284;2022-08-20T02:27:14;11.82;;;7.05;;
30818;SDS011;17546;42.674;23.284;2022-08-20T02:29:39;12.25;;;6.70;;
30818;SDS011;17546;42.674;23.284;2022-08-20T02:32:06;14.77;;;6.82;;
30818;SDS011;17546;42.674;23.284;2022-08-20T02:34:32;16.80;;;6.57;;
30818;SDS011;17546;42.674;23.284;2022-08-20T02:36:59;12.75;;;6.93;;
30818;SDS011;17546;42.674;23.284;2022-08-20T02:39:25;16.15;;;6.25;;
30818;SDS011;17546;42.674;23.284;2022-08-20T02:41:51;17.58;;;7.07;;
30818;SDS011;17546;42.674;23.284;2022-08-20T02:44:17;8.65;;;6.20;;
30818;SDS011;17546;42.674;23.284;2022-08-20T02:46:44;15.38;;;6.30;;
30818;SDS011;17546;42.674;23.284;2022-08-20T02:49:11;18.08;;;6.63;;
30818;SDS011;17546;42.674;23.284;2022-08-20T02:51:37;10.30;;;6.20;;
30818;SDS011;17546;42.674;23.284;2022-08-20T02:54:02;18.67;;;6.60;;
30818;SDS011;17546;42.674;23.284;2022-08-20T02:56:27;12.52;;;6.80;;
30818;SDS011;17546;42.674;23.284;2022-08-20T02:58:53;11.65;;;7.10;;
30818;SDS011;17546;42.674;23.284;2022-08-20T03:01:18;11.73;;;6.22;;
30818;SDS011;17546;42.674;23.284;2022-08-20T03:03:44;9.55;;;6.47;;
30818;SDS011;17546;42.674;23.284;2022-08-20T03:06:10;11.38;;;6.32;;
30818;SDS011;17546;42.674;23.284;2022-08-20T03:08:36;17.50;;;6.60;;
30818;SDS011;17546;42.674;23.284;2022-08-20T03:11:02;11.35;;;6.60;;
30818;SDS011;17546;42.674;23.284;2022-08-20T03:13:29;9.25;;;6.60;;
30818;SDS011;17546;42.674;23.284;2022-08-20T03:15:56;11.48;;;6.35;;
30818;SDS011;17546;42.674;23.284;2022-08-20T03:18:24;11.23;;;7.13;;
30818;SDS011;17546;42.674;23.284;2022-08-20T03:20:52;10.18;;;6.50;;
30818;SDS011;17546;42.674;23.284;2022-08-20T03:23:18;15.70;;;6.15;;
30818;SDS011;17546;42.674;23.284;2022-08-20T03:25:45;14.77;;;6.80;;
30818;SDS011;17546;42.674;23.284;2022-08-20T03:28:12;14.35;;;6.43;;
30818;SDS011;17546;42.674;23.284;2022-08-20T03:30:38;15.25;;;6.50;;
30818;SDS011;17546;42.674;23.284;2022-08-20T03:33:05;10.88;;;6.18;;
30818;SDS011;17546;42.674;23.284;2022-08-20T03:35:31;11.60;;;6.50;;
30818;SDS011;17546;42.674;23.284;2022-08-20T03:37:57;17.35;;;6.85;;
30818;SDS011;17546;42.674;23.284;2022-08-20T03:40:25;12.25;;;6.68;;
30818;SDS011;17546;42.674;23.284;2022-08-20T03:42:55;11.10;;;6.82;;
30818;SDS011;17546;42.674;23.284;2022-08-20T03:45:21;13.32;;;6.47;;
30818;SDS011;17546;42.674;23.284;2022-08-20T03:47:48;10.40;;;6.65;;
30818;SDS011;17546;42.674;23.284;2022-08-20T03:50:17;14.02;;;6.60;;
30818;SDS011;17546;42.674;23.284;2022-08-20T03:52:44;13.10;;;6.80;;
30818;SDS011;17546;42.674;23.284;2022-08-20T03:55:09;14.35;;;6.65;;
30818;SDS011;17546;42.674;23.284;2022-08-20T03:57:42;14.02;;;6.70;;
30818;SDS011;17546;42.674;23.284;2022-08-20T04:00:09;14.82;;;6.93;;
30818;SDS011;17546;42.674;23.284;2022-08-20T04:02:37;19.95;;;6.45;;
30818;SDS011;17546;42.674;23.284;2022-08-20T04:05:02;21.55;;;6.78;;
30818;SDS011;17546;42.674;23.284;2022-08-20T04:07:28;19.85;;;6.55;;
30818;SDS011;17546;42.674;23.284;2022-08-20T04:09:54;14.18;;;6.47;;
30818;SDS011;17546;42.674;23.284;2022-08-20T04:12:21;13.60;;;6.70;;
30818;SDS011;17546;42.674;23.284;2022-08-20T04:14:48;11.57;;;6.55;;
30818;SDS011;17546;42.674;23.284;2022-08-20T04:17:16;16.75;;;6.57;;
30818;SDS011;17546;42.674;23.284;2022-08-20T04:19:43;15.45;;;7.28;;
30818;SDS011;17546;42.674;23.284;2022-08-20T04:22:10;16.42;;;8.15;;
30818;SDS011;17546;42.674;23.284;2022-08-20T04:24:42;13.57;;;6.63;;
30818;SDS011;17546;42.674;23.284;2022-08-20T04:27:08;17.23;;;6.95;;
30818;SDS011;17546;42.674;23.284;2022-08-20T04:29:35;15.93;;;7.22;;
30818;SDS011;17546;42.674;23.284;2022-08-20T04:32:02;15.80;;;7.22;;
30818;SDS011;17546;42.674;23.284;2022-08-20T04:34:29;10.55;;;7.05;;
30818;SDS011;17546;42.674;23.284;2022-08-20T04:36:54;18.38;;;7.40;;
30818;SDS011;17546;42.674;23.284;2022-08-20T04:39:20;12.55;;;7.20;;
30818;SDS011;17546;42.674;23.284;2022-08-20T04:41:45;15.15;;;6.80;;
30818;SDS011;17546;42.674;23.284;2022-08-20T04:44:11;14.35;;;7.20;;
30818;SDS011;17546;42.674;23.284;2022-08-20T04:46:37;13.45;;;8.23;;
30818;SDS011;17546;42.674;23.284;2022-08-20T04:49:04;14.82;;;8.05;;
30818;SDS011;17546;42.674;23.284;2022-08-20T04:51:30;17.77;;;7.75;;
30818;SDS011;17546;42.674;23.284;2022-08-20T04:53:56;19.77;;;7.93;;
30818;SDS011;17546;42.674;23.284;2022-08-20T04:56:23;26.63;;;8.07;;
30818;SDS011;17546;42.674;23.284;2022-08-20T04:58:52;12.80;;;7.47;;
30818;SDS011;17546;42.674;23.284;2022-08-20T05:01:19;19.00;;;7.90;;
30818;SDS011;17546;42.674;23.284;2022-08-20T05:03:47;17.00;;;7.35;;
30818;SDS011;17546;42.674;23.284;2022-08-20T05:06:12;13.70;;;7.50;;
30818;SDS011;17546;42.674;23.284;2022-08-20T05:08:42;24.45;;;8.32;;
30818;SDS011;17546;42.674;23.284;2022-08-20T05:11:09;19.45;;;8.02;;
30818;SDS011;17546;42.674;23.284;2022-08-20T05:13:34;16.35;;;8.02;;
30818;SDS011;17546;42.674;23.284;2022-08-20T05:16:00;17.52;;;8.02;;
30818;SDS011;17546;42.674;23.284;2022-08-20T05:18:29;21.88;;;7.82;;
30818;SDS011;17546;42.674;23.284;2022-08-20T05:20:57;17.58;;;7.72;;
30818;SDS011;17546;42.674;23.284;2022-08-20T05:23:28;15.38;;;7.72;;
30818;SDS011;17546;42.674;23.284;2022-08-20T05:25:55;16.52;;;7.40;;
30818;SDS011;17546;42.674;23.284;2022-08-20T05:28:25;21.17;;;7.57;;
30818;SDS011;17546;42.674;23.284;2022-08-20T05:30:56;17.85;;;8.00;;
30818;SDS011;17546;42.674;23.284;2022-08-20T05:33:23;12.48;;;7.70;;
30818;SDS011;17546;42.674;23.284;2022-08-20T05:35:49;16.92;;;7.88;;
30818;SDS011;17546;42.674;23.284;2022-08-20T05:38:17;11.20;;;7.35;;
30818;SDS011;17546;42.674;23.284;2022-08-20T05:40:45;19.23;;;7.85;;
30818;SDS011;17546;42.674;23.284;2022-08-20T05:43:11;18.80;;;7.63;;
30818;SDS011;17546;42.674;23.284;2022-08-20T05:45:38;19.40;;;7.68;;
30818;SDS011;17546;42.674;23.284;2022-08-20T05:48:08;29.02;;;8.35;;
30818;SDS011;17546;42.674;23.284;2022-08-20T05:50:38;15.88;;;8.05;;
30818;SDS011;17546;42.674;23.284;2022-08-20T05:53:05;26.58;;;9.27;;
30818;SDS011;17546;42.674;23.284;2022-08-20T05:55:31;21.50;;;9.80;;
30818;SDS011;17546;42.674;23.284;2022-08-20T05:58:00;16.38;;;9.05;;
30818;SDS011;17546;42.674;23.284;2022-08-20T06:00:27;19.63;;;9.13;;
30818;SDS011;17546;42.674;23.284;2022-08-20T06:02:54;24.77;;;8.73;;
30818;SDS011;17546;42.674;23.284;2022-08-20T06:05:41;26.50;;;10.02;;
30818;SDS011;17546;42.674;23.284;2022-08-20T06:08:07;19.08;;;8.90;;
30818;SDS011;17546;42.674;23.284;2022-08-20T06:10:34;28.20;;;9.60;;
30818;SDS011;17546;42.674;23.284;2022-08-20T06:13:01;24.83;;;9.15;;
30818;SDS011;17546;42.674;23.284;2022-08-20T06:15:27;19.08;;;9.23;;
30818;SDS011;17546;42.674;23.284;2022-08-20T06:18:12;22.65;;;9.75;;
30818;SDS011;17546;42.674;23.284;2022-08-20T06:20:38;18.63;;;9.60;;
30818;SDS011;17546;42.674;23.284;2022-08-20T06:23:04;22.63;;;9.65;;
30818;SDS011;17546;42.674;23.284;2022-08-20T06:25:30;25.27;;;9.60;;
30818;SDS011;17546;42.674;23.284;2022-08-20T06:27:57;24.48;;;9.57;;
30818;SDS011;17546;42.674;23.284;2022-08-20T06:30:23;18.67;;;9.63;;
30818;SDS011;17546;42.674;23.284;2022-08-20T06:32:49;20.55;;;9.40;;
30818;SDS011;17546;42.674;23.284;2022-08-20T06:35:15;22.02;;;8.93;;
30818;SDS011;17546;42.674;23.284;2022-08-20T06:37:41;24.92;;;8.23;;
30818;SDS011;17546;42.674;23.284;2022-08-20T06:40:09;24.90;;;8.27;;
30818;SDS011;17546;42.674;23.284;2022-08-20T06:42:44;16.63;;;7.80;;
30818;SDS011;17546;42.674;23.284;2022-08-20T06:45:10;22.20;;;8.95;;
30818;SDS011;17546;42.674;23.284;2022-08-20T06:47:38;19.30;;;8.05;;
30818;SDS011;17546;42.674;23.284;2022-08-20T06:50:08;19.60;;;7.97;;
30818;SDS011;17546;42.674;23.284;2022-08-20T06:52:37;19.88;;;7.97;;
30818;SDS011;17546;42.674;23.284;2022-08-20T06:55:06;23.25;;;9.23;;
30818;SDS011;17546;42.674;23.284;2022-08-20T06:57:34;16.75;;;8.70;;
30818;SDS011;17546;42.674;23.284;2022-08-20T07:00:00;13.77;;;8.05;;
30818;SDS011;17546;42.674;23.284;2022-08-20T07:02:26;24.05;;;8.77;;
30818;SDS011;17546;42.674;23.284;2022-08-20T07:04:51;25.50;;;8.27;;
30818;SDS011;17546;42.674;23.284;2022-08-20T07:07:19;18.80;;;9.15;;
30818;SDS011;17546;42.674;23.284;2022-08-20T07:09:45;18.60;;;8.40;;
30818;SDS011;17546;42.674;23.284;2022-08-20T07:12:11;27.00;;;8.70;;
30818;SDS011;17546;42.674;23.284;2022-08-20T07:14:37;14.75;;;8.55;;
30818;SDS011;17546;42.674;23.284;2022-08-20T07:17:02;22.25;;;8.40;;
30818;SDS011;17546;42.674;23.284;2022-08-20T07:19:29;17.60;;;8.45;;
30818;SDS011;17546;42.674;23.284;2022-08-20T07:21:55;13.27;;;8.43;;
30818;SDS011;17546;42.674;23.284;2022-08-20T07:24:20;17.15;;;8.38;;
30818;SDS011;17546;42.674;23.284;2022-08-20T07:26:46;21.42;;;8.32;;
30818;SDS011;17546;42.674;23.284;2022-08-20T07:29:13;25.15;;;8.77;;
30818;SDS011;17546;42.674;23.284;2022-08-20T07:31:39;17.33;;;8.02;;
30818;SDS011;17546;42.674;23.284;2022-08-20T07:34:23;25.08;;;7.18;;
30818;SDS011;17546;42.674;23.284;2022-08-20T07:36:48;17.13;;;7.68;;
30818;SDS011;17546;42.674;23.284;2022-08-20T07:39:14;19.05;;;7.80;;
30818;SDS011;17546;42.674;23.284;2022-08-20T07:41:39;15.07;;;7.50;;
30818;SDS011;17546;42.674;23.284;2022-08-20T07:44:05;12.68;;;8.60;;
30818;SDS011;17546;42.674;23.284;2022-08-20T07:46:38;16.00;;;7.90;;
30818;SDS011;17546;42.674;23.284;2022-08-20T07:49:03;19.70;;;8.00;;
30818;SDS011;17546;42.674;23.284;2022-08-20T07:51:33;19.63;;;8.48;;
30818;SDS011;17546;42.674;23.284;2022-08-20T07:53:59;20.60;;;7.47;;
30818;SDS011;17546;42.674;23.284;2022-08-20T07:56:25;20.50;;;8.18;;
30818;SDS011;17546;42.674;23.284;2022-08-20T07:58:52;14.63;;;7.90;;
30818;SDS011;17546;42.674;23.284;2022-08-20T08:01:24;14.90;;;7.40;;
30818;SDS011;17546;42.674;23.284;2022-08-20T08:03:52;15.85;;;7.40;;
30818;SDS011;17546;42.674;23.284;2022-08-20T08:06:18;20.50;;;8.05;;
30818;SDS011;17546;42.674;23.284;2022-08-20T08:08:46;14.80;;;8.05;;
30818;SDS011;17546;42.674;23.284;2022-08-20T08:11:17;13.82;;;7.25;;
30818;SDS011;17546;42.674;23.284;2022-08-20T08:13:43;21.90;;;7.20;;
30818;SDS011;17546;42.674;23.284;2022-08-20T08:16:09;16.40;;;7.28;;
30818;SDS011;17546;42.674;23.284;2022-08-20T08:18:40;18.83;;;7.38;;
30818;SDS011;17546;42.674;23.284;2022-08-20T08:21:09;16.75;;;7.15;;
30818;SDS011;17546;42.674;23.284;2022-08-20T08:23:37;16.05;;;6.72;;
30818;SDS011;17546;42.674;23.284;2022-08-20T08:26:08;12.70;;;6.80;;
30818;SDS011;17546;42.674;23.284;2022-08-20T08:28:33;17.45;;;6.75;;
30818;SDS011;17546;42.674;23.284;2022-08-20T08:31:00;17.48;;;6.78;;
30818;SDS011;17546;42.674;23.284;2022-08-20T08:33:28;15.90;;;6.75;;
30818;SDS011;17546;42.674;23.284;2022-08-20T08:36:05;19.50;;;7.10;;
30818;SDS011;17546;42.674;23.284;2022-08-20T08:38:35;13.55;;;6.88;;
30818;SDS011;17546;42.674;23.284;2022-08-20T08:41:06;15.70;;;7.35;;
30818;SDS011;17546;42.674;23.284;2022-08-20T08:43:39;12.18;;;6.93;;
30818;SDS011;17546;42.674;23.284;2022-08-20T08:46:08;13.82;;;6.97;;
30818;SDS011;17546;42.674;23.284;2022-08-20T08:48:39;14.15;;;6.53;;
30818;SDS011;17546;42.674;23.284;2022-08-20T08:51:08;28.70;;;7.07;;
30818;SDS011;17546;42.674;23.284;2022-08-20T08:53:39;14.93;;;6.93;;
30818;SDS011;17546;42.674;23.284;2022-08-20T08:56:26;21.67;;;7.10;;
30818;SDS011;17546;42.674;23.284;2022-08-20T08:58:54;18.13;;;6.70;;
30818;SDS011;17546;42.674;23.284;2022-08-20T09:01:28;15.57;;;6.85;;
30818;SDS011;17546;42.674;23.284;2022-08-20T09:03:57;16.27;;;6.60;;
30818;SDS011;17546;42.674;23.284;2022-08-20T09:06:23;26.77;;;7.32;;
30818;SDS011;17546;42.674;23.284;2022-08-20T09:08:51;17.67;;;6.78;;
30818;SDS011;17546;42.674;23.284;2022-08-20T09:11:20;8.80;;;6.25;;
30818;SDS011;17546;42.674;23.284;2022-08-20T09:13:47;13.73;;;7.00;;
30818;SDS011;17546;42.674;23.284;2022-08-20T09:16:13;12.48;;;7.03;;
30818;SDS011;17546;42.674;23.284;2022-08-20T09:18:39;15.65;;;6.75;;
30818;SDS011;17546;42.674;23.284;2022-08-20T09:21:05;18.92;;;6.95;;
30818;SDS011;17546;42.674;23.284;2022-08-20T09:23:31;14.70;;;6.97;;
30818;SDS011;17546;42.674;23.284;2022-08-20T09:25:57;9.60;;;6.53;;
30818;SDS011;17546;42.674;23.284;2022-08-20T09:28:23;19.65;;;6.88;;
30818;SDS011;17546;42.674;23.284;2022-08-20T09:30:48;8.77;;;6.30;;
30818;SDS011;17546;42.674;23.284;2022-08-20T09:33:14;19.35;;;6.45;;
30818;SDS011;17546;42.674;23.284;2022-08-20T09:35:40;15.00;;;6.72;;
30818;SDS011;17546;42.674;23.284;2022-08-20T09:38:05;9.60;;;6.75;;
30818;SDS011;17546;42.674;23.284;2022-08-20T09:40:32;22.45;;;7.05;;
30818;SDS011;17546;42.674;23.284;2022-08-20T09:42:58;12.23;;;6.05;;
30818;SDS011;17546;42.674;23.284;2022-08-20T09:45:24;13.75;;;6.50;;
30818;SDS011;17546;42.674;23.284;2022-08-20T09:47:50;14.65;;;6.75;;
30818;SDS011;17546;42.674;23.284;2022-08-20T09:50:15;13.05;;;6.07;;
30818;SDS011;17546;42.674;23.284;2022-08-20T09:52:42;11.48;;;6.85;;
30818;SDS011;17546;42.674;23.284;2022-08-20T09:55:16;17.63;;;6.80;;
30818;SDS011;17546;42.674;23.284;2022-08-20T09:57:46;17.05;;;6.57;;
30818;SDS011;17546;42.674;23.284;2022-08-20T10:00:12;10.98;;;6.50;;
30818;SDS011;17546;42.674;23.284;2022-08-20T10:02:39;11.70;;;5.85;;
30818;SDS011;17546;42.674;23.284;2022-08-20T10:05:05;15.77;;;6.43;;
30818;SDS011;17546;42.674;23.284;2022-08-20T10:07:31;9.48;;;6.55;;
30818;SDS011;17546;42.674;23.284;2022-08-20T10:10:00;13.65;;;6.07;;
30818;SDS011;17546;42.674;23.284;2022-08-20T10:12:26;16.45;;;6.63;;
30818;SDS011;17546;42.674;23.284;2022-08-20T10:14:51;13.15;;;6.35;;
30818;SDS011;17546;42.674;23.284;2022-08-20T10:17:16;10.75;;;6.28;;
30818;SDS011;17546;42.674;23.284;2022-08-20T10:19:42;11.60;;;6.53;;
30818;SDS011;17546;42.674;23.284;2022-08-20T10:22:07;18.15;;;6.60;;
30818;SDS011;17546;42.674;23.284;2022-08-20T10:24:33;15.13;;;6.75;;
30818;SDS011;17546;42.674;23.284;2022-08-20T10:26:59;14.55;;;6.65;;
30818;SDS011;17546;42.674;23.284;2022-08-20T10:29:26;13.65;;;6.35;;
30818;SDS011;17546;42.674;23.284;2022-08-20T10:31:54;10.55;;;6.53;;
30818;SDS011;17546;42.674;23.284;2022-08-20T10:34:21;18.88;;;7.32;;
30818;SDS011;17546;42.674;23.284;2022-08-20T10:36:48;17.00;;;6.80;;
30818;SDS011;17546;42.674;23.284;2022-08-20T10:39:13;11.70;;;6.63;;
30818;SDS011;17546;42.674;23.284;2022-08-20T10:41:39;20.48;;;6.50;;
30818;SDS011;17546;42.674;23.284;2022-08-20T10:44:05;11.88;;;6.50;;
30818;SDS011;17546;42.674;23.284;2022-08-20T10:46:31;16.92;;;6.43;;
30818;SDS011;17546;42.674;23.284;2022-08-20T10:48:57;10.80;;;6.15;;
30818;SDS011;17546;42.674;23.284;2022-08-20T10:51:22;9.77;;;5.90;;
30818;SDS011;17546;42.674;23.284;2022-08-20T10:53:48;12.98;;;6.22;;
30818;SDS011;17546;42.674;23.284;2022-08-20T10:56:13;12.63;;;6.38;;
30818;SDS011;17546;42.674;23.284;2022-08-20T10:58:39;14.95;;;6.35;;
30818;SDS011;17546;42.674;23.284;2022-08-20T11:01:04;12.40;;;6.63;;
30818;SDS011;17546;42.674;23.284;2022-08-20T11:03:30;11.85;;;6.28;;
30818;SDS011;17546;42.674;23.284;2022-08-20T11:05:55;12.82;;;6.55;;
30818;SDS011;17546;42.674;23.284;2022-08-20T11:08:21;14.40;;;6.43;;
30818;SDS011;17546;42.674;23.284;2022-08-20T11:10:47;13.88;;;6.95;;
30818;SDS011;17546;42.674;23.284;2022-08-20T11:13:13;10.90;;;6.30;;
30818;SDS011;17546;42.674;23.284;2022-08-20T11:15:39;12.88;;;6.60;;
30818;SDS011;17546;42.674;23.284;2022-08-20T11:18:07;14.23;;;7.05;;
30818;SDS011;17546;42.674;23.284;2022-08-20T11:20:33;29.75;;;7.25;;
30818;SDS011;17546;42.674;23.284;2022-08-20T11:22:59;13.50;;;6.57;;
30818;SDS011;17546;42.674;23.284;2022-08-20T11:25:25;20.23;;;7.00;;
30818;SDS011;17546;42.674;23.284;2022-08-20T11:27:53;16.00;;;6.80;;
30818;SDS011;17546;42.674;23.284;2022-08-20T11:30:29;15.95;;;7.03;;
30818;SDS011;17546;42.674;23.284;2022-08-20T11:32:56;13.10;;;6.53;;
30818;SDS011;17546;42.674;23.284;2022-08-20T11:35:26;16.27;;;6.80;;
30818;SDS011;17546;42.674;23.284;2022-08-20T11:37:54;17.65;;;7.25;;
30818;SDS011;17546;42.674;23.284;2022-08-20T11:40:21;10.18;;;6.50;;
30818;SDS011;17546;42.674;23.284;2022-08-20T11:42:46;19.88;;;6.63;;
30818;SDS011;17546;42.674;23.284;2022-08-20T11:45:12;14.52;;;6.75;;
30818;SDS011;17546;42.674;23.284;2022-08-20T11:47:38;13.57;;;7.03;;
30818;SDS011;17546;42.674;23.284;2022-08-20T11:50:09;11.10;;;6.55;;
30818;SDS011;17546;42.674;23.284;2022-08-20T11:52:39;15.63;;;6.75;;
30818;SDS011;17546;42.674;23.284;2022-08-20T11:55:05;17.08;;;6.63;;
30818;SDS011;17546;42.674;23.284;2022-08-20T11:57:33;18.67;;;6.70;;
30818;SDS011;17546;42.674;23.284;2022-08-20T12:00:02;20.60;;;7.22;;
30818;SDS011;17546;42.674;23.284;2022-08-20T12:02:35;18.13;;;6.78;;
30818;SDS011;17546;42.674;23.284;2022-08-20T12:05:00;13.25;;;6.75;;
30818;SDS011;17546;42.674;23.284;2022-08-20T12:07:26;13.90;;;6.93;;
30818;SDS011;17546;42.674;23.284;2022-08-20T12:09:52;16.52;;;6.65;;
30818;SDS011;17546;42.674;23.284;2022-08-20T12:12:18;19.20;;;6.50;;
30818;SDS011;17546;42.674;23.284;2022-08-20T12:14:48;12.25;;;7.13;;
30818;SDS011;17546;42.674;23.284;2022-08-20T12:17:19;15.70;;;7.05;;
30818;SDS011;17546;42.674;23.284;2022-08-20T12:19:51;12.18;;;6.78;;
30818;SDS011;17546;42.674;23.284;2022-08-20T12:22:17;14.57;;;7.13;;
30818;SDS011;17546;42.674;23.284;2022-08-20T12:24:44;20.38;;;7.15;;
30818;SDS011;17546;42.674;23.284;2022-08-20T12:27:11;21.50;;;6.75;;
30818;SDS011;17546;42.674;23.284;2022-08-20T12:29:40;19.17;;;7.15;;
30818;SDS011;17546;42.674;23.284;2022-08-20T12:32:07;15.30;;;6.60;;
30818;SDS011;17546;42.674;23.284;2022-08-20T12:34:33;18.83;;;7.05;;
30818;SDS011;17546;42.674;23.284;2022-08-20T12:37:01;21.90;;;7.00;;
30818;SDS011;17546;42.674;23.284;2022-08-20T12:39:29;19.08;;;7.03;;
30818;SDS011;17546;42.674;23.284;2022-08-20T12:41:57;14.55;;;7.28;;
30818;SDS011;17546;42.674;23.284;2022-08-20T12:44:23;13.43;;;7.65;;
30818;SDS011;17546;42.674;23.284;2022-08-20T12:46:49;18.92;;;7.95;;
30818;SDS011;17546;42.674;23.284;2022-08-20T12:49:14;22.05;;;8.98;;
30818;SDS011;17546;42.674;23.284;2022-08-20T12:51:40;26.63;;;9.05;;
30818;SDS011;17546;42.674;23.284;2022-08-20T12:54:05;29.50;;;9.75;;
30818;SDS011;17546;42.674;23.284;2022-08-20T12:56:31;27.85;;;10.63;;
30818;SDS011;17546;42.674;23.284;2022-08-20T12:58:56;32.55;;;11.38;;
30818;SDS011;17546;42.674;23.284;2022-08-20T13:01:22;25.95;;;10.55;;
30818;SDS011;17546;42.674;23.284;2022-08-20T13:03:47;36.60;;;10.07;;
30818;SDS011;17546;42.674;23.284;2022-08-20T13:06:12;23.88;;;10.18;;
30818;SDS011;17546;42.674;23.284;2022-08-20T13:08:42;28.77;;;10.52;;
30818;SDS011;17546;42.674;23.284;2022-08-20T13:11:07;25.67;;;10.00;;
30818;SDS011;17546;42.674;23.284;2022-08-20T13:13:32;19.73;;;10.15;;
30818;SDS011;17546;42.674;23.284;2022-08-20T13:15:58;29.05;;;10.82;;
30818;SDS011;17546;42.674;23.284;2022-08-20T13:18:23;26.52;;;11.73;;
30818;SDS011;17546;42.674;23.284;2022-08-20T13:20:49;25.90;;;10.25;;
30818;SDS011;17546;42.674;23.284;2022-08-20T13:23:14;28.23;;;10.98;;
30818;SDS011;17546;42.674;23.284;2022-08-20T13:25:40;25.63;;;10.45;;
30818;SDS011;17546;42.674;23.284;2022-08-20T13:28:06;23.42;;;9.98;;
30818;SDS011;17546;42.674;23.284;2022-08-20T13:30:32;23.40;;;9.13;;
30818;SDS011;17546;42.674;23.284;2022-08-20T13:33:02;17.73;;;9.18;;
30818;SDS011;17546;42.674;23.284;2022-08-20T13:35:28;21.42;;;9.20;;
30818;SDS011;17546;42.674;23.284;2022-08-20T13:37:54;20.73;;;9.30;;
30818;SDS011;17546;42.674;23.284;2022-08-20T13:40:19;25.10;;;9.27;;
30818;SDS011;17546;42.674;23.284;2022-08-20T13:42:45;18.40;;;9.43;;
30818;SDS011;17546;42.674;23.284;2022-08-20T13:45:10;31.58;;;9.50;;
30818;SDS011;17546;42.674;23.284;2022-08-20T13:47:40;25.90;;;9.70;;
30818;SDS011;17546;42.674;23.284;2022-08-20T13:50:14;58.13;;;15.18;;
30818;SDS011;17546;42.674;23.284;2022-08-20T13:52:42;27.30;;;11.57;;
30818;SDS011;17546;42.674;23.284;2022-08-20T13:55:09;21.63;;;11.25;;
30818;SDS011;17546;42.674;23.284;2022-08-20T13:57:36;23.23;;;11.75;;
30818;SDS011;17546;42.674;23.284;2022-08-20T14:00:03;23.70;;;12.02;;
30818;SDS011;17546;42.674;23.284;2022-08-20T14:02:32;25.38;;;12.13;;
30818;SDS011;17546;42.674;23.284;2022-08-20T14:04:57;18.90;;;13.10;;
30818;SDS011;17546;42.674;23.284;2022-08-20T14:07:24;21.38;;;13.73;;
30818;SDS011;17546;42.674;23.284;2022-08-20T14:09:53;22.85;;;13.18;;
30818;SDS011;17546;42.674;23.284;2022-08-20T14:12:21;27.23;;;14.50;;
30818;SDS011;17546;42.674;23.284;2022-08-20T14:14:47;21.58;;;14.10;;
30818;SDS011;17546;42.674;23.284;2022-08-20T14:19:48;24.10;;;13.63;;
30818;SDS011;17546;42.674;23.284;2022-08-20T14:22:15;22.38;;;13.68;;
30818;SDS011;17546;42.674;23.284;2022-08-20T14:24:42;23.98;;;12.52;;
30818;SDS011;17546;42.674;23.284;2022-08-20T14:27:08;21.58;;;11.85;;
30818;SDS011;17546;42.674;23.284;2022-08-20T14:29:34;27.98;;;12.27;;
30818;SDS011;17546;42.674;23.284;2022-08-20T14:32:01;23.27;;;10.85;;
30818;SDS011;17546;42.674;23.284;2022-08-20T14:34:27;20.63;;;11.23;;